Wilmington, OH

2:15 PM EST on March 01, 2017 (GMT -0500)
2.2 N Wilmington | | Change Station
Active Advisory: Wind Advisory Active Notice: Public Information Statement

Elev 1053 ft 39.47 °N, 83.84 °W | Updated 6 minutes ago

Overcast
Overcast
58.9 °F
Feels Like 58.9 °F
N
16.0
Wind Variable Wind from WSW
Gusts 22.0 mph

Today
High -- | Low -- °F
--% Chance of Precip.
Yesterday
High -- | Low -- °F
Precip. -- in
Pressure 29.60 in
Visibility 10.0 miles
Clouds Scattered Clouds 2700 ft
Mostly Cloudy 4600 ft
Overcast 6000 ft
Dew Point 52 °F
Humidity 77%
Rainfall 2.11 in
Snow Depth Not available.
7:07 AM 6:27 PM
Waxing Crescent, 12% visible
METAR KILN 011854Z AUTO 25020G32KT 10SM SCT027 BKN046 OVC060 14/10 A2959 RMK AO2 PK WND 25032/1850 SLP022 T01440100
Pressure 29.60 in
Visibility 10.0 miles
Clouds Scattered Clouds 2700 ft
Mostly Cloudy 4600 ft
Overcast 6000 ft
Dew Point 52 °F
Humidity 77%
Rainfall 2.11 in
Snow Depth Not available.
7:07 AM 6:27 PM
Waxing Crescent, 12% visible
METAR KILN 011854Z AUTO 25020G32KT 10SM SCT027 BKN046 OVC060 14/10 A2959 RMK AO2 PK WND 25032/1850 SLP022 T01440100

Get Your Daily Forecast Email!

Thanks for signing up!

Be on the lookout for a verification email in your inbox.

You'll start receiving the daily forecast at 8 AM.

×

10-Day Weather Forecast

Almanac

Astronomy

Mar. 01, 2017 Rise Set
Actual Time
Civil Twilight
Nautical Twilight
Astronomical Twilight
Moon
Length of Visible Light
Length of Day
Tomorrow will be .
, % of the Moon is Illuminated

Today's Extremes

State Highs State Lows

Community

WunderPhotos

Upload Photos

1,962,540 photos uploaded!

WunderBlog® & News

Nearby

Air Quality

  Air Quality AQ Index Pollutant
Not available.

Snow Depth

Station Depth Elevation

Earthquake Activity

City Distance Mag. Time & Date
Minimum magnitude displayed is 2.5.

Coastal Water Temperatures

Place Temperature

Stations

Nearby Weather Stations

Station Location Temp. Windchill Dew Point Humidity Wind Precip. Elev Updated Type
                   

Watches & Warnings

Wind Advisory
Issued: 10:29 AM EST Mar. 1, 2017 – National Weather Service

... Wind Advisory in effect until 1 am EST Thursday...

The National Weather Service in Wilmington has issued a Wind
Advisory... which is in effect until 1 am EST Thursday.

* Winds... west 15 to 25 mph with gusts 40 to 50 mph.

* Timing... winds will increase this afternoon. Wind gusts will
continue into tonight.

* Impacts... scattered tree and power line damage is possible
along with some minor property damage in the highest gusts.
Winds this strong can make driving difficult, especially for
high profile vehicles.

Precautionary/preparedness actions...

Secure loose outdoor objects. Drivers of high-profile vehicles or
trailers should exercise caution. The wind and wind gusts will
make difficult driving conditions.